Time;durP1;ratioP1;P1;durP2;ratioP2;P2;SDS_P1;SDS_P2;PMS_P1;PMS_P2;Temp;Humidity;BMP_temperature;BMP_pressure;BME280_temperature;BME280_humidity;BME280_pressure;Samples;Min_cycle;Max_cycle;Signal;HPM_P1;HPM_P2
2023/03/13 00:00:19;;;;;;;3.63;2.28;;;23.20;48.00;;;;;;4986582;28;20105;-63
2023/03/13 00:02:45;;;;;;;4.20;1.98;;;23.20;48.00;;;;;;4986880;28;20101;-64
2023/03/13 00:05:11;;;;;;;4.25;2.28;;;23.10;48.00;;;;;;4988037;28;20441;-63
2023/03/13 00:07:37;;;;;;;3.55;2.10;;;23.10;48.00;;;;;;4988534;28;20027;-65
2023/03/13 00:10:04;;;;;;;3.28;1.95;;;23.00;48.00;;;;;;4983545;28;20038;-63
2023/03/13 00:12:29;;;;;;;2.90;1.80;;;23.00;48.00;;;;;;4986645;28;20496;-63
2023/03/13 00:14:55;;;;;;;3.92;2.10;;;23.00;48.00;;;;;;4984477;28;20133;-63
2023/03/13 00:17:21;;;;;;;3.47;2.30;;;23.00;48.00;;;;;;4985308;28;20483;-64
2023/03/13 00:19:47;;;;;;;2.83;1.83;;;23.00;48.00;;;;;;4981585;28;20101;-63
2023/03/13 00:22:12;;;;;;;3.10;1.75;;;23.00;48.00;;;;;;4984966;28;20085;-63
2023/03/13 00:24:38;;;;;;;3.55;1.88;;;23.00;48.00;;;;;;4983589;28;20034;-63
2023/03/13 00:27:04;;;;;;;3.35;2.00;;;23.00;48.10;;;;;;4982962;28;20059;-63
2023/03/13 00:29:32;;;;;;;3.22;1.90;;;22.90;48.10;;;;;;4983886;28;20438;-64
2023/03/13 00:31:58;;;;;;;2.47;1.58;;;22.90;48.10;;;;;;4983668;28;20034;-64
2023/03/13 00:34:26;;;;;;;2.95;1.90;;;22.90;48.10;;;;;;4986384;28;20030;-64
2023/03/13 00:36:53;;;;;;;3.08;1.90;;;22.90;48.10;;;;;;4983754;28;20164;-64
2023/03/13 00:39:19;;;;;;;2.47;1.60;;;22.90;48.10;;;;;;4987673;28;20032;-63
2023/03/13 00:41:45;;;;;;;2.83;1.73;;;22.80;48.10;;;;;;4982214;28;20026;-64
2023/03/13 00:44:10;;;;;;;2.83;1.65;;;22.80;48.10;;;;;;4982530;28;20023;-65
2023/03/13 00:46:36;;;;;;;2.83;1.73;;;22.80;48.10;;;;;;4985622;28;20031;-65
2023/03/13 00:49:02;;;;;;;3.42;1.80;;;22.80;48.20;;;;;;4984063;28;20027;-64
2023/03/13 00:51:29;;;;;;;3.17;1.80;;;22.80;48.20;;;;;;4984295;28;20783;-65
2023/03/13 00:53:56;;;;;;;2.70;1.73;;;22.70;48.20;;;;;;4985558;28;20031;-64
2023/03/13 00:56:22;;;;;;;2.85;1.70;;;22.70;48.20;;;;;;4985463;28;20427;-64
2023/03/13 00:58:49;;;;;;;3.08;1.60;;;22.70;48.20;;;;;;4980540;28;20027;-65
2023/03/13 01:01:23;;;;;;;2.40;1.60;;;22.70;48.30;;;;;;4984198;28;20030;-65
2023/03/13 01:03:55;;;;;;;2.35;1.60;;;22.70;48.30;;;;;;4986214;28;20011;-65
2023/03/13 01:06:26;;;;;;;2.75;1.67;;;22.60;48.20;;;;;;4981922;28;20106;-64
2023/03/13 01:08:52;;;;;;;3.30;1.80;;;22.70;48.30;;;;;;4982603;28;20395;-65
2023/03/13 01:11:24;;;;;;;2.85;1.70;;;22.60;48.30;;;;;;4984803;28;20018;-64
2023/03/13 01:13:53;;;;;;;2.97;1.77;;;22.60;48.30;;;;;;4982693;28;20479;-65
2023/03/13 01:16:21;;;;;;;2.42;1.58;;;22.60;48.40;;;;;;4982757;28;20041;-64
2023/03/13 01:18:55;;;;;;;2.40;1.40;;;22.50;48.30;;;;;;4982289;28;20387;-65
2023/03/13 01:21:22;;;;;;;2.55;1.67;;;22.50;48.30;;;;;;4984345;28;20026;-65
2023/03/13 01:23:49;;;;;;;2.63;1.58;;;22.50;48.40;;;;;;4987951;28;20027;-65
2023/03/13 01:26:15;;;;;;;2.50;1.52;;;22.50;48.40;;;;;;4983043;28;20030;-64
2023/03/13 01:28:41;;;;;;;2.70;1.73;;;22.50;48.40;;;;;;4980299;28;20888;-64
2023/03/13 01:31:17;;;;;;;1.92;1.30;;;22.50;48.40;;;;;;4985065;28;20116;-64
2023/03/13 01:33:44;;;;;;;2.67;1.60;;;22.50;48.40;;;;;;4987239;28;20121;-65
2023/03/13 01:36:10;;;;;;;2.22;1.48;;;22.40;48.40;;;;;;4984632;28;20032;-64
2023/03/13 01:38:37;;;;;;;2.40;1.40;;;22.40;48.50;;;;;;4984524;28;20030;-64
2023/03/13 01:41:03;;;;;;;2.10;1.38;;;22.40;48.50;;;;;;4985637;28;20081;-63
2023/03/13 01:43:31;;;;;;;2.83;1.70;;;22.30;48.50;;;;;;4982843;28;20050;-63
2023/03/13 01:46:03;;;;;;;2.33;1.40;;;22.30;48.50;;;;;;4985775;28;20455;-63
2023/03/13 01:48:53;;;;;;;2.15;1.35;;;22.30;48.50;;;;;;4984422;28;20030;-63
2023/03/13 01:51:27;;;;;;;2.30;1.40;;;22.30;48.50;;;;;;4983993;28;20508;-64
2023/03/13 01:54:13;;;;;;;2.47;1.48;;;22.30;48.50;;;;;;4986102;28;20054;-63
2023/03/13 01:56:45;;;;;;;2.88;1.45;;;22.30;49.10;;;;;;4982210;28;20502;-65
2023/03/13 01:59:15;;;;;;;2.30;1.38;;;22.30;48.60;;;;;;4981599;28;20026;-63
2023/03/13 02:01:44;;;;;;;4.20;1.58;;;22.30;48.60;;;;;;4983083;28;20102;-64
2023/03/13 02:04:11;;;;;;;2.38;1.33;;;22.30;48.60;;;;;;4988766;28;20145;-64
2023/03/13 02:06:40;;;;;;;2.13;1.40;;;22.20;48.60;;;;;;4983097;28;20034;-64
2023/03/13 02:09:13;;;;;;;2.03;1.40;;;22.20;48.60;;;;;;4980934;28;20475;-64
2023/03/13 02:11:54;;;;;;;1.98;1.20;;;22.20;48.60;;;;;;4985975;28;20042;-64
2023/03/13 02:14:24;;;;;;;2.22;1.30;;;22.20;48.60;;;;;;4980752;28;20030;-64
2023/03/13 02:16:51;;;;;;;2.10;1.40;;;22.20;48.60;;;;;;4982919;28;20034;-64
2023/03/13 02:19:39;;;;;;;1.98;1.42;;;22.10;48.60;;;;;;4981869;28;20089;-64
2023/03/13 02:22:24;;;;;;;2.50;1.42;;;22.20;48.60;;;;;;4980966;28;20035;-64
2023/03/13 02:25:00;;;;;;;2.17;1.30;;;22.10;48.60;;;;;;4983614;28;20026;-64
2023/03/13 02:27:26;;;;;;;2.78;1.40;;;22.10;48.60;;;;;;4982064;28;20507;-64
2023/03/13 02:29:52;;;;;;;2.13;1.40;;;22.10;48.60;;;;;;4984916;28;20068;-64
2023/03/13 02:32:18;;;;;;;2.20;1.30;;;22.10;48.60;;;;;;4985141;28;20026;-63
2023/03/13 02:34:47;;;;;;;2.15;1.30;;;22.10;48.70;;;;;;4982939;28;20034;-64
2023/03/13 02:37:14;;;;;;;1.90;1.10;;;22.10;48.70;;;;;;4980717;28;20038;-64
2023/03/13 02:39:49;;;;;;;2.63;1.33;;;22.10;48.70;;;;;;4986135;28;20105;-64
2023/03/13 02:42:18;;;;;;;2.05;1.20;;;22.00;48.60;;;;;;4982443;28;20026;-64
2023/03/13 02:44:45;;;;;;;2.05;1.30;;;22.10;48.70;;;;;;4984095;28;20037;-64
2023/03/13 02:47:16;;;;;;;1.75;1.13;;;22.00;48.70;;;;;;4980586;28;20043;-64
2023/03/13 02:49:42;;;;;;;1.83;1.10;;;22.00;48.70;;;;;;4984461;28;20023;-63
2023/03/13 02:52:12;;;;;;;1.67;1.10;;;22.00;48.70;;;;;;4981218;28;20398;-63
2023/03/13 02:54:39;;;;;;;2.33;1.30;;;22.00;48.70;;;;;;4983418;28;20121;-64
2023/03/13 02:57:05;;;;;;;2.15;1.25;;;22.00;48.70;;;;;;4983169;28;20030;-64
2023/03/13 02:59:33;;;;;;;2.10;1.20;;;22.00;48.70;;;;;;4984011;28;20486;-64
2023/03/13 03:01:59;;;;;;;2.00;1.20;;;22.00;48.70;;;;;;4983138;28;20027;-64
2023/03/13 03:04:25;;;;;;;1.75;1.15;;;22.00;48.70;;;;;;4984317;28;20023;-64
2023/03/13 03:06:51;;;;;;;2.10;1.10;;;21.90;48.70;;;;;;4981982;28;20027;-64
2023/03/13 03:09:18;;;;;;;2.30;1.27;;;21.90;49.20;;;;;;4981137;28;20038;-65
2023/03/13 03:11:44;;;;;;;1.95;1.30;;;21.90;48.70;;;;;;4984755;28;20037;-65
2023/03/13 03:14:10;;;;;;;1.95;1.20;;;21.90;49.20;;;;;;4979609;28;20403;-65
2023/03/13 03:16:37;;;;;;;2.45;1.30;;;21.90;48.70;;;;;;4983048;28;20027;-63
2023/03/13 03:19:03;;;;;;;1.60;1.10;;;21.90;48.70;;;;;;4984444;28;20398;-65
2023/03/13 03:21:28;;;;;;;2.10;1.25;;;21.90;48.70;;;;;;4980665;28;20549;-65
2023/03/13 03:23:54;;;;;;;1.95;1.20;;;21.90;48.70;;;;;;4981169;28;20118;-65
2023/03/13 03:26:20;;;;;;;2.20;1.40;;;21.90;48.70;;;;;;4988259;28;20077;-64
2023/03/13 03:28:46;;;;;;;1.48;1.00;;;21.90;48.70;;;;;;4981178;28;20062;-63
2023/03/13 03:31:13;;;;;;;1.95;1.33;;;21.90;48.70;;;;;;4982309;28;20059;-64
2023/03/13 03:33:40;;;;;;;2.25;1.30;;;21.80;48.60;;;;;;4985908;28;20030;-64
2023/03/13 03:36:09;;;;;;;1.88;1.10;;;21.80;48.60;;;;;;4988136;28;20423;-64
2023/03/13 03:38:35;;;;;;;1.95;1.33;;;21.80;48.60;;;;;;4985896;28;20027;-64
2023/03/13 03:41:01;;;;;;;1.92;1.05;;;21.80;48.60;;;;;;4985218;28;20053;-63
2023/03/13 03:43:26;;;;;;;1.90;1.00;;;21.80;48.60;;;;;;4985140;28;20375;-64
2023/03/13 03:45:52;;;;;;;2.17;1.13;;;21.80;48.60;;;;;;4984529;28;20026;-63
2023/03/13 03:48:18;;;;;;;1.83;1.10;;;21.80;48.70;;;;;;4984890;28;20046;-63
2023/03/13 03:50:43;;;;;;;2.00;1.20;;;21.80;48.70;;;;;;4981639;28;20490;-64
2023/03/13 03:53:09;;;;;;;1.88;1.10;;;21.80;48.70;;;;;;4984713;28;20457;-63
2023/03/13 03:55:35;;;;;;;1.95;1.20;;;21.80;48.80;;;;;;4987586;28;20073;-65
2023/03/13 03:58:01;;;;;;;1.58;1.10;;;21.80;48.80;;;;;;5000769;28;20030;-64
2023/03/13 04:00:26;;;;;;;1.80;1.10;;;21.70;48.70;;;;;;4984365;28;20035;-64
2023/03/13 04:02:54;;;;;;;2.28;1.27;;;21.70;48.70;;;;;;4982704;28;20022;-65
2023/03/13 04:05:20;;;;;;;2.33;1.30;;;21.80;48.80;;;;;;4987400;28;20015;-64
2023/03/13 04:07:46;;;;;;;1.88;1.20;;;21.70;48.70;;;;;;4984515;28;20049;-64
2023/03/13 04:10:12;;;;;;;1.95;1.20;;;21.70;48.80;;;;;;4983930;28;20042;-64
2023/03/13 04:12:38;;;;;;;1.75;1.10;;;21.70;48.80;;;;;;4984159;28;20029;-64
2023/03/13 04:15:04;;;;;;;1.63;1.10;;;21.70;48.70;;;;;;4983372;28;20379;-64
2023/03/13 04:17:30;;;;;;;2.13;1.23;;;21.70;48.70;;;;;;4983831;28;20475;-64
2023/03/13 04:19:55;;;;;;;2.00;1.17;;;21.70;48.80;;;;;;4986738;28;20149;-64
2023/03/13 04:22:21;;;;;;;1.95;1.17;;;21.70;48.80;;;;;;4988278;28;20474;-64
2023/03/13 04:24:47;;;;;;;1.70;1.10;;;21.70;48.80;;;;;;4983636;28;20093;-64
2023/03/13 04:27:13;;;;;;;2.38;1.25;;;21.70;48.80;;;;;;4985414;28;20029;-64
2023/03/13 04:29:38;;;;;;;1.85;1.20;;;21.70;48.80;;;;;;4986445;28;20022;-64
2023/03/13 04:32:05;;;;;;;2.28;1.10;;;21.70;48.90;;;;;;4982884;28;20115;-64
2023/03/13 04:34:30;;;;;;;1.83;1.00;;;21.70;48.80;;;;;;4984545;28;20034;-64
2023/03/13 04:36:56;;;;;;;1.98;1.00;;;21.70;48.90;;;;;;4986008;28;20097;-64
2023/03/13 04:39:25;;;;;;;1.75;1.10;;;21.60;48.80;;;;;;4984454;28;20030;-62
2023/03/13 04:41:52;;;;;;;1.33;0.90;;;21.60;48.80;;;;;;4982434;28;20027;-64
2023/03/13 04:44:18;;;;;;;2.00;1.25;;;21.60;48.80;;;;;;4982970;28;20097;-64
2023/03/13 04:46:44;;;;;;;1.90;1.20;;;21.60;48.80;;;;;;4982024;28;20048;-64
2023/03/13 04:49:10;;;;;;;1.67;1.00;;;21.60;48.80;;;;;;4985080;28;20418;-64
2023/03/13 04:51:35;;;;;;;2.33;1.13;;;21.60;48.80;;;;;;4984754;28;20023;-64
2023/03/13 04:54:02;;;;;;;2.15;1.30;;;21.60;48.80;;;;;;4983869;28;20030;-65
2023/03/13 04:56:28;;;;;;;1.83;1.00;;;21.60;48.90;;;;;;4983869;28;20105;-64
2023/03/13 04:58:54;;;;;;;1.70;0.90;;;21.60;48.90;;;;;;4988493;28;20110;-65
2023/03/13 05:01:20;;;;;;;1.85;1.10;;;21.60;48.90;;;;;;4984958;28;20037;-65
2023/03/13 05:03:45;;;;;;;1.73;1.05;;;21.60;48.90;;;;;;4984009;28;20035;-65
2023/03/13 05:06:12;;;;;;;2.08;1.17;;;21.60;48.90;;;;;;4984248;28;20401;-65
2023/03/13 05:08:38;;;;;;;1.45;0.90;;;21.60;48.90;;;;;;4985864;28;20037;-65
2023/03/13 05:11:04;;;;;;;1.63;1.05;;;21.60;49.50;;;;;;4983921;28;20862;-65
2023/03/13 05:13:30;;;;;;;1.70;1.10;;;21.60;48.90;;;;;;4983443;28;20031;-65
2023/03/13 05:15:56;;;;;;;1.60;1.00;;;21.60;48.90;;;;;;4984050;28;20026;-65
2023/03/13 05:18:21;;;;;;;2.15;1.00;;;21.60;48.90;;;;;;4984888;28;20026;-65
2023/03/13 05:20:47;;;;;;;2.13;1.20;;;21.60;48.90;;;;;;4983932;28;20224;-65
2023/03/13 05:23:13;;;;;;;1.30;0.93;;;21.60;48.90;;;;;;4981589;28;20026;-66
2023/03/13 05:25:39;;;;;;;2.13;1.13;;;21.60;48.90;;;;;;4985409;28;20030;-65
2023/03/13 05:28:05;;;;;;;2.05;1.25;;;21.60;48.90;;;;;;4983804;28;20085;-65
2023/03/13 05:30:31;;;;;;;1.58;1.10;;;21.60;48.90;;;;;;4984810;28;20375;-65
2023/03/13 05:32:57;;;;;;;1.95;1.10;;;21.60;48.90;;;;;;4985731;28;20034;-65
2023/03/13 05:35:23;;;;;;;2.00;1.13;;;21.60;48.90;;;;;;4985224;28;20033;-65
2023/03/13 05:37:49;;;;;;;2.10;1.20;;;21.50;48.90;;;;;;4984735;28;20030;-65
2023/03/13 05:40:14;;;;;;;1.88;1.02;;;21.50;48.90;;;;;;4983745;28;20038;-65
2023/03/13 05:42:40;;;;;;;2.20;1.05;;;21.50;48.90;;;;;;4987066;28;20088;-65
2023/03/13 05:45:08;;;;;;;1.45;0.90;;;21.50;48.90;;;;;;4982431;28;20022;-65
2023/03/13 05:47:34;;;;;;;1.70;1.17;;;21.50;48.90;;;;;;4982897;28;20333;-65
2023/03/13 05:50:00;;;;;;;1.75;1.02;;;21.50;49.00;;;;;;4983591;28;20517;-65
2023/03/13 05:52:25;;;;;;;1.77;1.00;;;21.50;48.90;;;;;;4983890;28;20030;-65
2023/03/13 05:54:51;;;;;;;1.35;1.00;;;21.50;49.00;;;;;;4980194;28;20030;-66
2023/03/13 05:57:17;;;;;;;1.90;1.10;;;21.50;49.00;;;;;;4984359;28;20038;-65
2023/03/13 05:59:43;;;;;;;1.77;1.00;;;21.50;49.00;;;;;;4983330;28;20030;-65
2023/03/13 06:02:09;;;;;;;1.58;1.00;;;21.50;49.00;;;;;;4982448;28;20090;-65
2023/03/13 06:04:35;;;;;;;1.92;1.20;;;21.50;49.00;;;;;;4985339;28;20383;-65
2023/03/13 06:07:00;;;;;;;1.65;0.82;;;21.50;49.00;;;;;;4983638;28;20022;-66
2023/03/13 06:09:26;;;;;;;1.15;0.88;;;21.50;49.00;;;;;;4982591;28;20113;-66
2023/03/13 06:11:52;;;;;;;1.23;0.88;;;21.50;49.00;;;;;;4985515;28;20023;-65
2023/03/13 06:14:18;;;;;;;1.52;0.82;;;21.40;49.00;;;;;;4985318;28;20073;-65
2023/03/13 06:16:44;;;;;;;1.70;1.00;;;21.50;49.10;;;;;;4981332;28;20037;-65
2023/03/13 06:19:10;;;;;;;1.67;1.00;;;21.50;49.10;;;;;;4983961;28;20050;-66
2023/03/13 06:21:36;;;;;;;2.00;0.90;;;21.40;49.00;;;;;;4982132;28;20023;-66
2023/03/13 06:24:02;;;;;;;1.45;1.00;;;21.50;49.10;;;;;;4984876;28;20033;-66
2023/03/13 06:26:27;;;;;;;2.22;1.02;;;21.50;49.10;;;;;;4984741;28;20038;-65
2023/03/13 06:28:53;;;;;;;1.67;1.00;;;21.40;49.00;;;;;;4982537;28;20050;-66
2023/03/13 06:31:19;;;;;;;1.90;0.93;;;21.40;49.10;;;;;;4982269;28;20053;-67
2023/03/13 06:33:45;;;;;;;1.30;0.88;;;21.40;49.30;;;;;;4981549;28;20030;-67
2023/03/13 06:36:11;;;;;;;1.17;0.90;;;21.40;49.40;;;;;;4983017;28;20039;-67
2023/03/13 06:38:37;;;;;;;1.88;1.00;;;21.40;49.30;;;;;;4982495;28;20479;-67
2023/03/13 06:41:03;;;;;;;0.90;0.75;;;21.40;49.30;;;;;;4980554;28;20081;-67
2023/03/13 06:43:29;;;;;;;1.42;0.88;;;21.40;49.30;;;;;;4982613;28;20129;-67
2023/03/13 06:45:55;;;;;;;1.63;0.80;;;21.40;49.30;;;;;;4980810;28;20042;-67
2023/03/13 06:48:24;;;;;;;1.92;0.95;;;21.40;49.30;;;;;;4981094;28;20030;-67
2023/03/13 06:50:49;;;;;;;1.50;0.85;;;21.40;49.30;;;;;;4980760;28;20023;-67
2023/03/13 06:53:18;;;;;;;1.50;0.85;;;21.40;49.30;;;;;;4979628;28;20057;-67
2023/03/13 06:55:44;;;;;;;1.63;0.98;;;21.40;49.30;;;;;;4984028;28;20031;-67
2023/03/13 06:58:10;;;;;;;1.45;0.98;;;21.40;49.30;;;;;;4982362;28;20057;-67
2023/03/13 07:00:38;;;;;;;2.17;0.90;;;21.40;49.30;;;;;;4983531;28;20482;-67
2023/03/13 07:03:04;;;;;;;1.00;0.77;;;21.40;49.30;;;;;;4978500;28;20438;-67
2023/03/13 07:05:30;;;;;;;1.38;0.90;;;21.40;49.30;;;;;;4981992;28;20031;-67
2023/03/13 07:07:56;;;;;;;1.23;0.80;;;21.40;49.30;;;;;;4983087;28;20474;-67
2023/03/13 07:10:22;;;;;;;1.15;0.80;;;21.40;49.30;;;;;;4981875;28;20050;-67
2023/03/13 07:12:47;;;;;;;2.22;1.10;;;21.40;49.30;;;;;;4982777;28;20047;-67
2023/03/13 07:15:13;;;;;;;2.05;1.00;;;21.40;49.30;;;;;;4986594;28;20030;-67
2023/03/13 07:17:39;;;;;;;1.63;0.85;;;21.30;49.30;;;;;;4983576;28;20089;-67
2023/03/13 07:20:08;;;;;;;1.42;0.80;;;21.30;49.30;;;;;;4982523;28;20117;-67
2023/03/13 07:22:34;;;;;;;1.60;0.82;;;21.30;49.30;;;;;;4980439;28;20084;-67
2023/03/13 07:25:03;;;;;;;1.92;0.90;;;21.30;49.30;;;;;;4980305;28;20111;-67
2023/03/13 07:27:29;;;;;;;1.80;0.90;;;21.30;49.30;;;;;;4983403;28;20446;-67
2023/03/13 07:29:55;;;;;;;1.70;1.00;;;21.30;49.30;;;;;;4982727;28;20038;-67
2023/03/13 07:32:21;;;;;;;1.92;1.08;;;21.30;49.30;;;;;;4980857;28;20042;-67
2023/03/13 07:34:46;;;;;;;1.88;0.90;;;21.30;49.30;;;;;;4983840;28;20038;-67
2023/03/13 07:37:13;;;;;;;1.83;0.93;;;21.30;49.30;;;;;;4982170;28;20495;-67
2023/03/13 07:39:39;;;;;;;1.10;0.80;;;21.30;49.30;;;;;;4980106;28;20386;-67
2023/03/13 07:42:05;;;;;;;1.55;0.70;;;21.30;49.30;;;;;;4981763;28;20026;-67
2023/03/13 07:44:30;;;;;;;1.40;0.90;;;21.30;49.30;;;;;;4980926;28;20046;-67
2023/03/13 07:46:59;;;;;;;1.08;0.70;;;21.30;49.30;;;;;;4980719;28;20027;-67
2023/03/13 07:49:25;;;;;;;1.50;0.88;;;21.30;49.30;;;;;;4982903;28;20023;-67
2023/03/13 07:51:51;;;;;;;2.33;0.85;;;21.30;49.30;;;;;;4983517;28;20037;-67
2023/03/13 07:54:16;;;;;;;1.25;0.80;;;21.30;49.30;;;;;;4980530;28;20073;-67
2023/03/13 07:56:42;;;;;;;1.40;0.80;;;21.30;49.30;;;;;;4981692;28;20496;-67
2023/03/13 07:59:08;;;;;;;1.17;0.80;;;21.30;49.30;;;;;;4982441;28;20109;-67
2023/03/13 08:01:34;;;;;;;1.48;0.93;;;21.30;49.30;;;;;;4981494;28;20113;-67
2023/03/13 08:04:00;;;;;;;1.00;0.77;;;21.30;49.30;;;;;;4980610;28;20099;-67
2023/03/13 08:06:28;;;;;;;1.85;0.90;;;21.30;49.30;;;;;;4981780;28;20442;-67
2023/03/13 08:08:57;;;;;;;1.15;0.70;;;21.30;49.30;;;;;;4983649;28;20493;-67
2023/03/13 08:11:25;;;;;;;1.40;0.70;;;21.30;49.20;;;;;;4981941;28;20039;-67
2023/03/13 08:13:52;;;;;;;1.45;0.80;;;21.30;49.20;;;;;;4981448;28;20077;-67
2023/03/13 08:16:32;;;;;;;1.77;0.80;;;21.30;49.20;;;;;;4980296;28;20397;-67
2023/03/13 08:18:59;;;;;;;1.77;0.90;;;21.30;49.20;;;;;;4983407;28;20490;-67
2023/03/13 08:21:30;;;;;;;1.60;0.80;;;21.30;49.20;;;;;;4984343;28;20034;-67
2023/03/13 08:23:58;;;;;;;1.17;0.77;;;21.30;49.20;;;;;;4985093;28;20026;-67
2023/03/13 08:26:27;;;;;;;1.80;0.90;;;21.30;49.20;;;;;;4982352;28;20038;-67
2023/03/13 08:29:01;;;;;;;1.77;0.80;;;21.30;49.20;;;;;;4984526;28;20022;-67
2023/03/13 08:31:32;;;;;;;0.90;0.70;;;21.30;49.20;;;;;;4984003;28;20033;-66
2023/03/13 08:33:58;;;;;;;1.35;0.90;;;21.30;49.20;;;;;;4986986;28;20050;-67
2023/03/13 08:36:31;;;;;;;1.20;0.80;;;21.30;49.20;;;;;;4983787;28;20030;-67
2023/03/13 08:38:59;;;;;;;1.40;0.70;;;21.30;49.20;;;;;;4986393;28;20062;-66
2023/03/13 08:41:27;;;;;;;1.80;0.80;;;21.30;49.10;;;;;;4983762;28;20082;-67
2023/03/13 08:43:55;;;;;;;1.50;0.80;;;21.20;49.00;;;;;;4982952;28;20029;-67
2023/03/13 08:46:21;;;;;;;0.85;0.60;;;21.20;49.00;;;;;;4986889;28;20172;-66
2023/03/13 08:48:51;;;;;;;1.02;0.90;;;21.20;49.00;;;;;;4984783;28;20040;-66
2023/03/13 08:51:18;;;;;;;1.30;0.90;;;21.30;49.10;;;;;;4982885;28;20050;-67
2023/03/13 08:53:44;;;;;;;1.27;0.60;;;21.30;49.10;;;;;;4986312;28;20018;-67
2023/03/13 08:56:13;;;;;;;1.10;0.70;;;21.20;49.00;;;;;;4984595;28;20555;-67
2023/03/13 08:58:39;;;;;;;0.90;0.60;;;21.20;49.00;;;;;;4985073;28;20031;-67
2023/03/13 09:01:11;;;;;;;0.88;0.60;;;21.20;49.00;;;;;;4983972;28;20398;-67
2023/03/13 09:03:37;;;;;;;0.88;0.70;;;21.30;49.00;;;;;;4985474;28;20068;-67
2023/03/13 09:06:04;;;;;;;0.93;0.65;;;21.30;49.00;;;;;;4983538;28;20038;-67
2023/03/13 09:08:30;;;;;;;1.67;0.80;;;21.20;48.90;;;;;;4982374;28;20533;-67
2023/03/13 09:11:01;;;;;;;1.63;0.82;;;21.20;48.90;;;;;;4984915;28;20485;-67
2023/03/13 09:13:28;;;;;;;0.95;0.70;;;21.20;48.90;;;;;;4986204;28;20030;-67
2023/03/13 09:15:55;;;;;;;1.00;0.70;;;21.20;48.90;;;;;;4983508;28;20556;-67
2023/03/13 09:18:21;;;;;;;0.63;0.60;;;21.20;48.90;;;;;;4983605;28;20414;-67
2023/03/13 09:20:47;;;;;;;1.17;0.57;;;21.20;48.90;;;;;;4985221;28;20038;-67
2023/03/13 09:23:13;;;;;;;1.40;0.70;;;21.20;48.80;;;;;;4984873;28;20536;-67
2023/03/13 09:25:38;;;;;;;1.17;0.77;;;21.20;48.80;;;;;;4982805;28;20042;-67
2023/03/13 09:28:04;;;;;;;1.15;0.70;;;21.20;48.80;;;;;;4984283;28;20081;-66
2023/03/13 09:30:30;;;;;;;1.20;0.70;;;21.20;48.80;;;;;;4983071;28;20027;-67
2023/03/13 09:32:56;;;;;;;1.20;0.70;;;21.20;48.80;;;;;;4983174;28;20309;-67
2023/03/13 09:35:21;;;;;;;1.13;0.68;;;21.20;48.80;;;;;;4996159;28;20027;-67
2023/03/13 09:37:47;;;;;;;0.93;0.70;;;21.20;48.80;;;;;;4989308;28;20034;-67
2023/03/13 09:40:19;;;;;;;1.20;0.68;;;21.20;48.80;;;;;;4983332;28;20386;-67
2023/03/13 09:42:51;;;;;;;0.80;0.60;;;21.20;48.80;;;;;;4979318;28;20031;-66
2023/03/13 09:45:42;;;;;;;0.88;0.60;;;21.20;48.80;;;;;;4984974;28;20027;-67
2023/03/13 09:48:21;;;;;;;1.15;0.70;;;21.20;48.70;;;;;;4981941;28;20026;-67
2023/03/13 09:51:13;;;;;;;0.90;0.60;;;21.20;48.80;;;;;;4982093;28;20030;-67
2023/03/13 09:53:39;;;;;;;0.88;0.60;;;21.20;48.70;;;;;;4982841;28;20161;-67
2023/03/13 09:56:19;;;;;;;0.85;0.60;;;21.20;48.70;;;;;;4983167;28;20117;-67
2023/03/13 09:58:54;;;;;;;1.25;0.80;;;21.20;48.70;;;;;;4980425;28;20031;-67
2023/03/13 10:01:26;;;;;;;0.80;0.70;;;21.30;48.70;;;;;;4984393;28;20481;-67
2023/03/13 10:04:20;;;;;;;0.77;0.50;;;21.20;48.70;;;;;;4983238;28;20467;-67
2023/03/13 10:06:47;;;;;;;0.75;0.60;;;21.30;48.80;;;;;;4982928;28;20391;-66
2023/03/13 10:09:21;;;;;;;0.60;0.50;;;21.30;48.70;;;;;;4981446;28;20033;-67
2023/03/13 10:12:20;;;;;;;0.70;0.63;;;21.30;48.80;;;;;;4998819;28;20513;-67
2023/03/13 10:15:04;;;;;;;1.00;0.77;;;21.30;48.80;;;;;;4981769;28;20835;-67
2023/03/13 10:17:35;;;;;;;1.05;0.70;;;21.30;48.80;;;;;;4981420;28;20026;-67
2023/03/13 10:20:27;;;;;;;1.20;0.80;;;21.30;48.90;;;;;;4983888;28;20034;-67
2023/03/13 10:23:01;;;;;;;0.98;0.60;;;21.30;49.00;;;;;;4985307;28;20070;-67
2023/03/13 10:25:31;;;;;;;1.38;1.08;;;21.30;48.90;;;;;;4983429;28;20376;-67
2023/03/13 10:27:57;;;;;;;1.35;0.85;;;21.30;48.90;;;;;;4981419;28;20026;-67
2023/03/13 10:30:53;;;;;;;0.70;0.60;;;21.20;48.80;;;;;;4983365;28;20027;-67
2023/03/13 10:33:24;;;;;;;0.95;0.70;;;21.30;49.00;;;;;;4978994;28;20065;-67
2023/03/13 10:36:01;;;;;;;1.15;0.77;;;21.20;49.00;;;;;;4985555;28;20033;-66
2023/03/13 10:38:27;;;;;;;1.70;0.80;;;21.20;49.10;;;;;;4983604;28;20029;-66
2023/03/13 10:41:17;;;;;;;0.98;0.70;;;21.30;49.20;;;;;;4981576;28;20030;-67
2023/03/13 10:43:51;;;;;;;0.93;0.70;;;21.30;49.30;;;;;;4982472;28;20328;-67
2023/03/13 10:46:28;;;;;;;1.30;0.60;;;21.30;49.20;;;;;;4983344;28;20053;-67
2023/03/13 10:48:56;;;;;;;1.23;0.80;;;21.30;49.30;;;;;;4977881;28;20023;-67
2023/03/13 10:51:30;;;;;;;0.90;0.68;;;21.30;49.40;;;;;;4986687;28;20038;-67
2023/03/13 10:53:55;;;;;;;1.23;0.80;;;21.30;49.30;;;;;;4980680;28;20419;-67
2023/03/13 10:56:29;;;;;;;0.63;0.60;;;21.30;49.30;;;;;;4980346;28;20029;-67
2023/03/13 10:58:56;;;;;;;0.88;0.70;;;21.30;49.30;;;;;;4980367;28;20045;-67
2023/03/13 11:01:40;;;;;;;0.80;0.60;;;21.30;49.30;;;;;;4980866;28;20105;-67
2023/03/13 11:04:32;;;;;;;1.27;0.70;;;21.30;49.20;;;;;;4982165;28;20624;-67
2023/03/13 11:07:19;;;;;;;0.77;0.65;;;21.30;49.30;;;;;;4983921;28;20041;-67
2023/03/13 11:10:01;;;;;;;0.60;0.60;;;21.40;49.20;;;;;;4994077;28;20093;-67
2023/03/13 11:12:27;;;;;;;1.02;0.68;;;21.40;49.20;;;;;;4981596;28;20483;-67
2023/03/13 11:15:00;;;;;;;0.90;0.68;;;21.40;49.20;;;;;;4982629;28;20134;-67
2023/03/13 11:17:40;;;;;;;1.35;0.70;;;21.40;49.20;;;;;;4982358;28;20684;-67
2023/03/13 11:20:25;;;;;;;0.57;0.50;;;21.40;49.20;;;;;;4982456;28;20043;-67
2023/03/13 11:23:08;;;;;;;0.75;0.60;;;21.40;49.20;;;;;;4981387;28;20045;-67
2023/03/13 11:25:41;;;;;;;0.93;0.50;;;21.40;49.20;;;;;;4982173;28;20022;-67
2023/03/13 11:28:35;;;;;;;0.95;0.70;;;21.50;49.30;;;;;;4979386;28;20380;-67
2023/03/13 11:31:23;;;;;;;0.52;0.40;;;21.40;49.20;;;;;;4983987;28;20027;-67
2023/03/13 11:33:56;;;;;;;1.75;0.60;;;21.50;49.30;;;;;;4982282;28;20034;-67
2023/03/13 11:36:34;;;;;;;0.55;0.50;;;21.50;49.30;;;;;;4983608;28;20026;-67
2023/03/13 11:39:18;;;;;;;1.00;0.57;;;21.50;49.30;;;;;;4996348;28;20168;-67
2023/03/13 11:42:00;;;;;;;0.88;0.70;;;21.50;49.20;;;;;;4983067;28;20066;-67
2023/03/13 11:45:07;;;;;;;0.60;0.52;;;21.50;49.30;;;;;;4980605;28;20138;-67
2023/03/13 11:47:58;;;;;;;0.63;0.52;;;21.50;49.30;;;;;;4983393;28;20034;-66
2023/03/13 11:50:33;;;;;;;1.08;0.68;;;21.50;49.30;;;;;;4981120;28;20522;-66
2023/03/13 11:53:27;;;;;;;0.75;0.60;;;21.50;49.30;;;;;;4980218;28;20506;-66
2023/03/13 11:56:20;;;;;;;0.60;0.60;;;21.50;49.30;;;;;;4985638;28;20537;-67
2023/03/13 11:59:07;;;;;;;0.50;0.45;;;21.60;49.40;;;;;;4983132;28;20069;-66
2023/03/13 12:01:39;;;;;;;1.17;0.52;;;21.60;49.40;;;;;;4983475;28;20129;-66
2023/03/13 12:04:45;;;;;;;0.90;0.50;;;21.60;49.40;;;;;;4984863;28;20481;-66
2023/03/13 12:07:16;;;;;;;0.88;0.60;;;21.60;49.40;;;;;;4975774;28;20487;-66
2023/03/13 12:09:54;;;;;;;1.20;0.50;;;21.60;49.30;;;;;;4981279;28;20027;-67
2023/03/13 12:12:30;;;;;;;1.05;0.80;;;21.60;49.30;;;;;;4984002;28;20049;-66
2023/03/13 12:15:13;;;;;;;0.90;0.50;;;21.60;49.30;;;;;;4988436;28;20033;-66
2023/03/13 12:17:43;;;;;;;0.60;0.40;;;21.70;49.40;;;;;;4984283;28;20445;-66
2023/03/13 12:20:25;;;;;;;0.70;0.50;;;21.70;49.40;;;;;;4985255;28;20132;-67
2023/03/13 12:22:57;;;;;;;1.75;0.70;;;21.70;49.40;;;;;;4982288;28;20034;-67
2023/03/13 12:25:31;;;;;;;1.05;0.60;;;21.70;49.40;;;;;;4984435;28;20460;-67
2023/03/13 12:28:22;;;;;;;0.70;0.65;;;21.70;49.40;;;;;;4984227;28;20022;-67
2023/03/13 12:31:17;;;;;;;0.57;0.45;;;21.70;49.40;;;;;;4984184;28;20031;-67
2023/03/13 12:33:59;;;;;;;0.70;0.50;;;21.70;49.40;;;;;;4985189;28;20100;-66
2023/03/13 12:36:40;;;;;;;1.30;0.70;;;21.70;49.40;;;;;;4983762;28;20482;-66
2023/03/13 12:39:27;;;;;;;0.82;0.55;;;21.80;49.40;;;;;;4999432;28;20065;-66
2023/03/13 12:42:19;;;;;;;1.02;0.70;;;21.80;49.40;;;;;;4985048;28;20033;-67
2023/03/13 12:44:45;;;;;;;1.20;0.68;;;21.80;49.40;;;;;;4984948;28;20027;-66
2023/03/13 12:47:34;;;;;;;1.65;0.70;;;21.80;49.30;;;;;;4985119;28;20026;-66
2023/03/13 12:50:33;;;;;;;1.65;0.80;;;21.80;49.30;;;;;;4981320;28;20058;-66
2023/03/13 12:53:35;;;;;;;1.50;0.70;;;21.80;49.30;;;;;;4984880;28;20042;-66
2023/03/13 12:56:20;;;;;;;1.52;0.75;;;21.90;49.40;;;;;;4983811;28;20057;-66
2023/03/13 12:59:14;;;;;;;1.17;0.70;;;21.90;49.30;;;;;;4984631;28;20402;-66
2023/03/13 13:01:49;;;;;;;1.27;0.70;;;21.90;49.30;;;;;;4982278;28;20027;-66
2023/03/13 13:04:20;;;;;;;1.05;0.70;;;21.90;49.20;;;;;;4982974;28;20026;-65